VEY weather

Vestmannaeyjar Airport
Vestmannaeyjar, Southern Region, Iceland

Public forecast

Using degrees Celsius for public forecast. Weather courtesy of forecast.io.

METAR (pilot weather report)

Retrieved 2019/04/23 17:00 UTC (30 minutes ago):

BIVM 231700Z 09030G42KT 6000 -RA SCT010 BKN015 OVC020 08/08 Q0986

TAF (pilot weather forecast)

Closest forecast is Reykjavik Airport, 61.1 nm (113.2 km) NW. Retrieved 2019/04/23 15:03 UTC (2 hours ago):

TAF BIRK 231400Z 2315/2415 10020KT 9999 RA SCT018 BKN027 OVC038 TX09/2318Z TN04/2315Z BECMG 2318/2320 12026G40KT BECMG 2322/2401 17020G30KT SHRA FEW023 BKN032 BECMG 2407/2409 17012KT NSW BECMG 2412/2414 VRB02KT 5000 RADZ OVC010